x

Southwest Hawaii - 215nm Ssw Of Hilo, Hi (51002) Wave Buoy

7:50am - Wed 4th Mar 2015 All times are HST. -10 hours from GMT.

  • Sig Wave height 7.5ft
  • Swell Direction
  • Peak Period 9s
  • Average Period 6s
  • Wind
    27mph, 31mph gusts
  • Sea Temp 79°f
  • Air Temp 75°f
  • Sea Pressure 1012.8mb
  • Southwest Hawaii - 215nm Ssw Of Hilo, Hi
  • Southwest Hawaii - 215nm Ssw Of Hilo, Hi

More Historic Weather Station data

Upgrade to MSW Pro to gain access to the past 30 days of data for over 8000 Wavebouys and Weather Stations around the globe.

Join Pro

Comparision Forecast

View Surf forecast
   
Wed 03/04 7:50am 7.5ft 9s 6s 27 31 mph 1012.8mb 79f 75f
6:50am 7.5ft 9s 7s 16 20 mph 1012.4mb 79f 77f
5:50am 7ft 9s 7s 13 16 mph 1011.7mb 79f 77f
4:50am 7ft 9s 7s 16 18 mph 1011mb 79f 78f
3:50am 7ft 10s 7s 13 16 mph 1011.6mb 79f 78f
2:50am 7.5ft 10s 7s 16 18 mph 1012mb 79f 78f
1:50am 7.5ft 9s 7s 16 18 mph 1012.4mb 79f 78f
12:50am 7.5ft 8s 7s 16 20 mph 1013.5mb 79f 78f
Tue 03/03 11:50pm 7ft 11s 6s 16 20 mph 1014mb 79f 77f
10:50pm 8ft 8s 7s 18 22 mph 1014.5mb 79f 77f
9:50pm 8.5ft 8s 7s 16 20 mph 1014.9mb 79f 77f
8:50pm 8ft 10s 7s 16 18 mph 1015.1mb 79f 77f
7:50pm 8ft 8s 7s 20 22 mph 1013.4mb 79f 78f
6:50pm 8ft 12s 7s 18 22 mph 1012.9mb 79f 78f
5:50pm 9ft 8s 7s 20 22 mph 1011.7mb 79f 78f
4:50pm 8.5ft 8s 7s 20 25 mph 1011.2mb 79f 78f
3:50pm 8ft 13s 6s 20 25 mph 1011.1mb 79f 78f
2:50pm 8.5ft 8s 7s 20 25 mph 1011.3mb 79f 78f
1:50pm 8ft 9s 6s 20 22 mph 1012.2mb 79f 78f
12:50pm 8ft 12s 7s 20 22 mph 1013.3mb 79f 78f
11:50am 8ft 8s 7s 20 22 mph 1014.1mb 79f 78f
10:50am 8.5ft 13s 7s 20 25 mph 1014.8mb 79f 78f
9:50am 9ft 13s 7s 20 25 mph 1014.9mb 79f 78f
8:50am 8ft 8s 7s 20 25 mph 1014.1mb 79f 78f
7:50am 8.5ft 9s 7s 20 25 mph 1014.1mb 79f 77f
6:50am 8ft 8s 7s 20 22 mph 1013.7mb 79f 77f
5:50am 8.5ft 13s 7s 16 20 mph 1013.4mb 79f 78f
4:50am 8.5ft 13s 7s 16 20 mph 1013.1mb 79f 77f
3:50am 9ft 14s 7s 18 22 mph 1013.3mb 79f 78f
2:50am 8ft 13s 7s 18 22 mph 1013.5mb 79f 78f
1:50am 8ft 11s 6s 18 20 mph 1014mb 79f 78f
12:50am 8.5ft 14s 7s 18 22 mph 1014.7mb 79f 78f
Mon 03/02 11:50pm 9ft 14s 7s 20 22 mph 1015mb 79f 78f
10:50pm 9ft 14s 7s 20 25 mph 1014.4mb 79f 78f
9:50pm 9ft 14s 7s 20 25 mph 1015mb 79f 78f
8:50pm 8ft 14s 7s 20 27 mph 1014.7mb 79f 77f
7:50pm 8.5ft 14s 7s 20 25 mph 1014mb 79f 78f
6:50pm 8ft 14s 7s 20 25 mph 1013.1mb 79f 78f
5:50pm 8ft 15s 7s 20 22 mph 1012.1mb 79f 78f
4:50pm 9ft 15s 7s 18 22 mph 1012.5mb 79f 78f
3:50pm 8ft 15s 7s 18 20 mph 1012.3mb 79f 78f
2:50pm 8ft 15s 7s 18 20 mph 1012.4mb 79f 78f
1:50pm 8ft 16s 7s 16 20 mph 1013.2mb 79f 78f
12:50pm 7.5ft 15s 6s 13 16 mph 1014.1mb 79f 77f
11:50am 7.5ft 7s 6s 16 20 mph 1014.6mb 79f 77f
10:50am 7ft 7s 6s 20 22 mph 1015.2mb 79f 77f
9:50am 8ft 8s 6s 20 25 mph 1014.9mb 79f 77f
8:50am 7.5ft 7s 6s 20 22 mph 1014.8mb 79f 77f
7:50am 7ft 8s 6s 18 22 mph 1013.7mb 79f 77f
6:50am 6.5ft 9s 6s 22 27 mph 1012.8mb 79f 78f
5:50am 6.5ft 8s 6s 20 27 mph 1012.2mb 79f 75f
4:50am 6.5ft 10s 6s 20 25 mph 1011.9mb 79f 76f
3:50am 6.5ft 8s 6s 20 25 mph 1012mb 79f 78f
2:50am 7ft 8s 6s 16 20 mph 1012.3mb 79f 78f
1:50am 6ft 9s 6s 18 22 mph 1012.5mb 79f 77f
12:50am 6ft 8s 6s 20 25 mph 1013.2mb 79f 78f
Sun 03/01 11:50pm 7ft 9s 6s 18 22 mph 1014mb 79f 78f
10:50pm 6ft 10s 6s 18 20 mph 1014.1mb 79f 78f
9:50pm 6.5ft 10s 7s 18 20 mph 1014.1mb 79f 78f
8:50pm 6.5ft 10s 6s 16 20 mph 1014.1mb 79f 78f
7:50pm 6ft 9s 6s 16 18 mph 1013.2mb 79f 78f
6:50pm 7ft 8s 6s 16 18 mph 1012.5mb 79f 78f
5:50pm 7ft 9s 6s 16 18 mph 1011.9mb 79f 77f
4:50pm 7ft 9s 6s 20 22 mph 1011.2mb 79f 78f
3:50pm 6.5ft 9s 6s 18 20 mph 1011.2mb 79f 78f
2:50pm 6ft 9s 6s 16 20 mph 1011.6mb 79f 78f
1:50pm 6.5ft 9s 7s 16 18 mph 1012mb 79f 78f
12:50pm 6ft 9s 6s 16 20 mph 1012.6mb 79f 78f
11:50am 6.5ft 10s 6s 16 18 mph 1013.6mb 79f 78f
10:50am 6ft 9s 6s 16 18 mph 1014.2mb 79f 78f
9:50am 6ft 10s 7s 16 20 mph 1014.2mb 79f 78f
8:50am 6.5ft 9s 6s 16 18 mph 1014.1mb 79f 78f
7:50am 6ft 9s 6s 16 20 mph 1013.5mb 79f 78f
6:50am 7ft 8s 7s 16 18 mph 1013.3mb 79f 78f
5:50am 5.5ft 10s 6s 18 20 mph 1012.4mb 79f 77f
4:50am 6.5ft 9s 6s 16 18 mph 1011.9mb 79f 77f
3:50am 6ft 9s 6s 18 20 mph 1011.6mb 79f 78f
2:50am 6ft 10s 6s 18 20 mph 1011.8mb 79f 78f
1:50am 6ft 10s 6s 16 20 mph 1012.4mb 79f 78f
12:50am 6ft 10s 6s 18 22 mph 1013mb 79f 78f
Sat 02/28 11:50pm 5.5ft 10s 6s 18 22 mph 1013.2mb 79f 78f
10:50pm 6ft 9s 6s 16 20 mph 1013.1mb 79f 78f
9:50pm 6ft 10s 7s 20 25 mph 1012.5mb 79f 78f
8:50pm 6ft 9s 7s 16 20 mph 1012.7mb 79f 78f
7:50pm 5.5ft 9s 7s 16 18 mph 1012.4mb 79f 78f
6:50pm 5.5ft 9s 7s 16 18 mph 1011.4mb 79f 78f